createdAt,value
2022-07-26T00:00:52.442Z,18.45
2022-07-26T00:05:10.530Z,18.41
2022-07-26T00:09:27.952Z,18.35
2022-07-26T00:13:30.963Z,18.51
2022-07-26T00:17:40.818Z,18.54
2022-07-26T00:22:20.068Z,18.04
2022-07-26T00:26:33.339Z,18.23
2022-07-26T00:30:45.760Z,17.99
2022-07-26T00:34:53.310Z,18.20
2022-07-26T00:39:01.431Z,18.13
2022-07-26T00:43:09.926Z,17.86
2022-07-26T00:47:16.231Z,18.10
2022-07-26T00:51:20.862Z,17.73
2022-07-26T00:55:29.400Z,18.17
2022-07-26T00:59:46.840Z,17.90
2022-07-26T01:03:55.309Z,17.90
2022-07-26T01:08:28.602Z,17.86
2022-07-26T01:21:51.796Z,17.65
2022-07-26T01:26:30.263Z,17.99
2022-07-26T01:40:26.407Z,17.93
2022-07-26T01:57:55.927Z,17.54
2022-07-26T02:02:17.043Z,17.74
2022-07-26T02:06:37.503Z,17.48
2022-07-26T02:12:37.092Z,17.23
2022-07-26T02:15:59.428Z,17.17
2022-07-26T02:20:22.953Z,17.25
2022-07-26T02:24:38.133Z,17.57
2022-07-26T02:33:03.280Z,17.31
2022-07-26T02:41:39.744Z,17.25
2022-07-26T02:46:41.414Z,17.31
2022-07-26T02:50:51.316Z,17.01
2022-07-26T02:55:06.095Z,17.00
2022-07-26T02:59:24.733Z,17.02
2022-07-26T03:03:29.756Z,16.89
2022-07-26T03:07:40.120Z,17.25
2022-07-26T03:12:03.797Z,17.10
2022-07-26T03:16:08.585Z,16.96
2022-07-26T03:20:17.383Z,17.07
2022-07-26T03:24:22.478Z,17.08
2022-07-26T03:28:29.805Z,16.90
2022-07-26T03:32:52.274Z,16.78
2022-07-26T03:41:32.569Z,17.27
2022-07-26T03:45:36.163Z,17.31
2022-07-26T03:49:53.041Z,16.86
2022-07-26T03:53:55.291Z,17.22
2022-07-26T04:02:17.947Z,17.33
2022-07-26T04:06:32.690Z,17.30
2022-07-26T04:10:48.733Z,16.71
2022-07-26T04:14:53.361Z,17.35
2022-07-26T04:18:59.392Z,17.22
2022-07-26T04:23:11.304Z,17.19
2022-07-26T04:27:22.786Z,17.39
2022-07-26T04:31:25.637Z,17.29
2022-07-26T04:35:30.930Z,17.31
2022-07-26T04:39:38.037Z,17.05
2022-07-26T04:43:43.069Z,17.20
2022-07-26T04:47:55.683Z,17.44
2022-07-26T04:51:59.817Z,17.52
2022-07-26T04:56:04.250Z,17.35
2022-07-26T05:00:23.041Z,17.42
2022-07-26T05:04:29.093Z,17.30
2022-07-26T05:08:31.199Z,17.48
2022-07-26T05:12:36.879Z,17.67
2022-07-26T05:16:44.446Z,17.61
2022-07-26T05:20:47.631Z,17.27
2022-07-26T05:24:52.461Z,17.67
2022-07-26T05:28:56.993Z,17.82
2022-07-26T05:32:59.133Z,17.76
2022-07-26T05:37:05.859Z,17.93
2022-07-26T05:41:12.747Z,17.94
2022-07-26T05:45:19.531Z,17.97
2022-07-26T05:49:27.751Z,17.64
2022-07-26T05:53:48.212Z,17.87
2022-07-26T05:57:50.631Z,17.71
2022-07-26T06:02:11.186Z,18.06
2022-07-26T06:06:13.490Z,17.93
2022-07-26T06:10:25.846Z,18.21
2022-07-26T06:14:34.630Z,18.21
2022-07-26T06:18:48.636Z,17.83
2022-07-26T06:22:53.265Z,17.81
2022-07-26T06:27:05.996Z,18.20
2022-07-26T06:40:21.349Z,18.65
2022-07-26T06:44:29.444Z,18.81
2022-07-26T06:48:39.765Z,18.75
2022-07-26T06:52:57.274Z,18.59
2022-07-26T07:12:10.105Z,19.56
2022-07-26T07:16:31.229Z,19.56
2022-07-26T07:20:40.972Z,19.57
2022-07-26T07:24:59.934Z,20.01
2022-07-26T07:34:13.832Z,20.36
2022-07-26T07:38:29.934Z,20.35
2022-07-26T07:42:53.103Z,19.95
2022-07-26T07:56:28.312Z,20.87
2022-07-26T08:00:49.833Z,21.05
2022-07-26T08:05:13.926Z,21.74
2022-07-26T08:09:28.729Z,21.68
2022-07-26T08:13:59.036Z,22.38
2022-07-26T08:18:22.309Z,22.87
2022-07-26T08:22:59.927Z,23.36
2022-07-26T08:27:41.060Z,23.19
2022-07-26T08:31:48.583Z,22.93
2022-07-26T08:36:17.111Z,22.59
2022-07-26T08:40:34.855Z,23.22
2022-07-26T08:45:05.391Z,23.24
2022-07-26T08:50:00.209Z,24.46
2022-07-26T08:54:06.011Z,24.48
2022-07-26T08:58:56.167Z,25.09
2022-07-26T09:03:26.821Z,24.59
2022-07-26T09:07:45.469Z,24.93
2022-07-26T09:12:00.662Z,25.36
2022-07-26T09:16:18.844Z,26.06
2022-07-26T09:20:36.657Z,25.67
2022-07-26T09:24:50.761Z,25.80
2022-07-26T09:29:18.182Z,25.54
2022-07-26T09:33:48.728Z,24.78
2022-07-26T09:37:57.723Z,23.99
2022-07-26T09:42:29.579Z,23.72
2022-07-26T09:47:11.845Z,23.45
2022-07-26T09:51:49.259Z,23.15
2022-07-26T09:56:01.458Z,23.18
2022-07-26T10:00:08.996Z,23.32
2022-07-26T10:04:27.461Z,23.47
2022-07-26T10:08:56.133Z,23.55
2022-07-26T10:13:12.842Z,23.88
2022-07-26T10:17:31.360Z,24.36
2022-07-26T10:21:55.495Z,24.62
2022-07-26T10:26:14.827Z,24.45
2022-07-26T10:30:35.556Z,24.86
2022-07-26T10:34:54.772Z,25.43
2022-07-26T10:39:55.959Z,25.87
2022-07-26T10:44:31.939Z,26.62
2022-07-26T10:49:18.330Z,26.22
2022-07-26T10:58:06.077Z,23.53
2022-07-26T11:02:34.822Z,23.27
2022-07-26T11:06:52.639Z,21.44
2022-07-26T11:11:11.593Z,21.93
2022-07-26T11:15:55.494Z,21.61
2022-07-26T11:20:16.501Z,21.49
2022-07-26T11:24:35.141Z,20.82
2022-07-26T11:29:16.730Z,20.94
2022-07-26T11:33:32.438Z,21.47
2022-07-26T11:38:12.490Z,21.23
2022-07-26T11:42:42.212Z,21.32
2022-07-26T11:47:14.712Z,22.00
2022-07-26T11:51:43.749Z,22.34
2022-07-26T11:56:11.692Z,21.34
2022-07-26T12:05:23.059Z,21.23
2022-07-26T12:09:56.331Z,22.05
2022-07-26T12:18:43.720Z,22.00
2022-07-26T12:23:01.568Z,22.54
2022-07-26T12:27:29.354Z,23.31
2022-07-26T12:31:48.678Z,23.28
2022-07-26T12:36:34.946Z,22.72
2022-07-26T12:40:21.992Z,22.84
2022-07-26T12:44:25.168Z,23.25
2022-07-26T12:48:50.071Z,23.12
2022-07-26T12:53:12.869Z,22.68
2022-07-26T12:57:29.960Z,21.43
2022-07-26T13:06:04.421Z,21.49
2022-07-26T13:10:34.743Z,21.37
2022-07-26T13:14:55.540Z,21.65
2022-07-26T13:19:04.092Z,21.88
2022-07-26T13:23:21.428Z,22.21
2022-07-26T13:27:27.602Z,22.21
2022-07-26T13:31:56.966Z,22.45
2022-07-26T13:40:20.020Z,21.89
2022-07-26T13:44:25.523Z,22.26
2022-07-26T13:49:05.102Z,22.74
2022-07-26T13:53:21.914Z,22.56
2022-07-26T14:02:01.751Z,22.15
2022-07-26T14:06:11.648Z,22.25
2022-07-26T14:10:47.369Z,21.08
2022-07-26T14:15:13.000Z,21.14
2022-07-26T14:19:19.571Z,21.68
2022-07-26T14:23:46.536Z,21.54
2022-07-26T14:28:29.117Z,21.18
2022-07-26T14:32:34.870Z,20.33
2022-07-26T14:37:08.359Z,20.98
2022-07-26T14:41:38.765Z,20.95
2022-07-26T14:50:18.957Z,20.64
2022-07-26T14:54:30.966Z,20.50
2022-07-26T15:02:59.595Z,21.32
2022-07-26T15:07:04.847Z,21.28
2022-07-26T15:15:37.673Z,20.71
2022-07-26T15:20:03.597Z,20.90
2022-07-26T15:24:14.415Z,21.40
2022-07-26T15:28:28.439Z,21.20
2022-07-26T15:32:35.318Z,21.37
2022-07-26T15:36:47.208Z,21.05
2022-07-26T15:41:04.565Z,20.75
2022-07-26T15:45:10.434Z,20.00
2022-07-26T15:49:19.469Z,19.83
2022-07-26T15:53:27.841Z,20.26
2022-07-26T15:57:59.251Z,20.47
2022-07-26T16:02:04.960Z,20.11
2022-07-26T16:06:18.616Z,20.02
2022-07-26T16:10:30.063Z,20.55
2022-07-26T16:14:53.305Z,20.37
2022-07-26T16:19:06.582Z,20.47
2022-07-26T16:23:11.411Z,19.58
2022-07-26T16:27:13.661Z,19.71
2022-07-26T16:31:19.078Z,19.92
2022-07-26T16:35:21.197Z,20.00
2022-07-26T16:39:36.507Z,20.31
2022-07-26T16:48:06.746Z,20.29
2022-07-26T16:52:09.350Z,19.83
2022-07-26T16:56:24.010Z,19.92
2022-07-26T17:00:28.931Z,19.75
2022-07-26T17:04:31.834Z,20.03
2022-07-26T17:08:34.738Z,20.16
2022-07-26T17:12:37.929Z,20.10
2022-07-26T17:16:42.875Z,19.84
2022-07-26T17:20:44.977Z,19.72
2022-07-26T17:24:59.741Z,19.50
2022-07-26T17:29:08.093Z,19.51
2022-07-26T17:33:13.336Z,19.17
2022-07-26T17:37:15.698Z,19.29
2022-07-26T17:41:18.572Z,19.12
2022-07-26T17:45:21.582Z,19.04
2022-07-26T17:49:27.732Z,19.48
2022-07-26T17:53:34.088Z,18.92
2022-07-26T17:57:36.919Z,19.18
2022-07-26T18:01:50.448Z,18.73
2022-07-26T18:06:19.238Z,18.93
2022-07-26T18:10:21.761Z,18.83
2022-07-26T18:18:43.706Z,18.58
2022-07-26T18:22:50.092Z,18.29
2022-07-26T18:26:52.686Z,18.76
2022-07-26T18:30:54.879Z,18.12
2022-07-26T18:34:58.367Z,18.28
2022-07-26T18:39:04.127Z,18.56
2022-07-26T18:43:08.887Z,18.60
2022-07-26T18:47:11.143Z,18.58
2022-07-26T18:51:13.231Z,18.45
2022-07-26T18:55:19.082Z,18.16
2022-07-26T18:59:24.129Z,18.35
2022-07-26T19:03:26.676Z,18.31
2022-07-26T19:07:31.947Z,18.10
2022-07-26T19:11:41.615Z,17.97
2022-07-26T19:15:48.260Z,18.21
2022-07-26T19:19:50.578Z,18.19
2022-07-26T19:23:55.116Z,18.06
2022-07-26T19:27:57.817Z,18.09
2022-07-26T19:32:00.189Z,17.69
2022-07-26T19:36:02.155Z,18.05
2022-07-26T19:40:06.911Z,17.93
2022-07-26T19:44:14.099Z,17.88
2022-07-26T19:48:18.844Z,17.87
2022-07-26T19:52:27.159Z,17.74
2022-07-26T19:56:30.876Z,17.70
2022-07-26T20:00:40.806Z,17.74
2022-07-26T20:04:46.106Z,17.63
2022-07-26T20:08:58.902Z,17.68
2022-07-26T20:13:02.321Z,17.80
2022-07-26T20:17:04.966Z,17.44
2022-07-26T20:25:40.814Z,17.21
2022-07-26T20:29:49.019Z,17.63
2022-07-26T20:33:51.299Z,17.66
2022-07-26T20:37:53.355Z,17.48
2022-07-26T20:41:59.343Z,17.30
2022-07-26T20:46:03.971Z,17.27
2022-07-26T20:50:09.410Z,16.90
2022-07-26T20:54:14.990Z,16.97
2022-07-26T20:58:18.478Z,16.45
2022-07-26T21:02:26.291Z,16.65
2022-07-26T21:06:34.402Z,16.62
2022-07-26T21:10:36.899Z,16.48
2022-07-26T21:14:39.697Z,16.83
2022-07-26T21:18:45.545Z,16.45
2022-07-26T21:23:12.866Z,16.60
2022-07-26T21:27:29.951Z,16.22
2022-07-26T21:31:32.323Z,16.56
2022-07-26T21:35:35.524Z,16.59
2022-07-26T21:39:40.478Z,16.40
2022-07-26T21:43:44.811Z,16.54
2022-07-26T21:47:46.968Z,16.33
2022-07-26T21:51:58.604Z,16.11
2022-07-26T21:56:01.282Z,16.11
2022-07-26T22:00:10.226Z,16.39
2022-07-26T22:04:13.625Z,16.08
2022-07-26T22:08:16.099Z,16.13
2022-07-26T22:12:19.204Z,15.94
2022-07-26T22:16:22.027Z,16.22
2022-07-26T22:20:24.271Z,15.98
2022-07-26T22:24:26.330Z,16.07
2022-07-26T22:28:29.849Z,15.55
2022-07-26T22:32:32.876Z,16.09
2022-07-26T22:36:35.527Z,15.88
2022-07-26T22:40:38.099Z,15.96
2022-07-26T22:44:43.572Z,15.72
2022-07-26T22:48:48.200Z,15.74
2022-07-26T22:52:50.279Z,15.55
2022-07-26T22:56:52.341Z,15.73
2022-07-26T23:00:54.780Z,15.79
2022-07-26T23:04:58.962Z,15.80
2022-07-26T23:09:01.968Z,15.61
2022-07-26T23:13:05.887Z,15.72
2022-07-26T23:17:08.468Z,15.69
2022-07-26T23:21:10.429Z,15.76
2022-07-26T23:25:13.870Z,15.76
2022-07-26T23:29:16.436Z,15.64
2022-07-26T23:33:18.427Z,15.57
2022-07-26T23:37:40.665Z,15.60
2022-07-26T23:41:42.948Z,15.67
2022-07-26T23:45:45.432Z,15.61
2022-07-26T23:49:47.479Z,15.58
2022-07-26T23:53:54.383Z,15.45
